sensor_id;sensor_type;location;lat;lon;timestamp;P1;durP1;ratioP1;P2;durP2;ratioP2
5539;SDS011;2792;52.452;9.752;2023-08-20T00:02:15;12.77;;;10.20;;
5539;SDS011;2792;52.452;9.752;2023-08-20T00:04:44;16.33;;;11.03;;
5539;SDS011;2792;52.452;9.752;2023-08-20T00:07:13;15.63;;;11.60;;
5539;SDS011;2792;52.452;9.752;2023-08-20T00:09:43;12.60;;;10.63;;
5539;SDS011;2792;52.452;9.752;2023-08-20T00:12:11;15.40;;;9.90;;
5539;SDS011;2792;52.452;9.752;2023-08-20T00:14:53;13.97;;;11.93;;
5539;SDS011;2792;52.452;9.752;2023-08-20T00:17:22;14.27;;;10.53;;
5539;SDS011;2792;52.452;9.752;2023-08-20T00:19:52;13.67;;;11.97;;
5539;SDS011;2792;52.452;9.752;2023-08-20T00:22:19;14.57;;;12.07;;
5539;SDS011;2792;52.452;9.752;2023-08-20T00:24:48;15.13;;;12.30;;
5539;SDS011;2792;52.452;9.752;2023-08-20T00:27:16;13.50;;;11.50;;
5539;SDS011;2792;52.452;9.752;2023-08-20T00:29:43;14.77;;;11.67;;
5539;SDS011;2792;52.452;9.752;2023-08-20T00:32:09;15.20;;;11.87;;
5539;SDS011;2792;52.452;9.752;2023-08-20T00:34:36;15.03;;;11.70;;
5539;SDS011;2792;52.452;9.752;2023-08-20T00:37:02;19.17;;;12.00;;
5539;SDS011;2792;52.452;9.752;2023-08-20T00:39:29;16.43;;;12.97;;
5539;SDS011;2792;52.452;9.752;2023-08-20T00:41:56;18.23;;;12.20;;
5539;SDS011;2792;52.452;9.752;2023-08-20T00:44:24;15.50;;;11.90;;
5539;SDS011;2792;52.452;9.752;2023-08-20T00:46:50;15.63;;;11.97;;
5539;SDS011;2792;52.452;9.752;2023-08-20T00:49:17;16.90;;;9.80;;
5539;SDS011;2792;52.452;9.752;2023-08-20T00:51:44;13.90;;;10.30;;
5539;SDS011;2792;52.452;9.752;2023-08-20T00:54:11;15.57;;;9.83;;
5539;SDS011;2792;52.452;9.752;2023-08-20T00:56:37;12.90;;;9.93;;
5539;SDS011;2792;52.452;9.752;2023-08-20T00:59:04;14.20;;;9.53;;
5539;SDS011;2792;52.452;9.752;2023-08-20T01:01:33;13.33;;;8.03;;
5539;SDS011;2792;52.452;9.752;2023-08-20T01:03:59;15.20;;;8.20;;
5539;SDS011;2792;52.452;9.752;2023-08-20T01:06:28;11.17;;;8.63;;
5539;SDS011;2792;52.452;9.752;2023-08-20T01:09:01;14.27;;;9.30;;
5539;SDS011;2792;52.452;9.752;2023-08-20T01:11:33;11.20;;;8.90;;
5539;SDS011;2792;52.452;9.752;2023-08-20T01:14:13;9.40;;;8.20;;
5539;SDS011;2792;52.452;9.752;2023-08-20T01:16:41;10.63;;;8.73;;
5539;SDS011;2792;52.452;9.752;2023-08-20T01:19:09;13.13;;;8.43;;
5539;SDS011;2792;52.452;9.752;2023-08-20T01:21:43;14.40;;;8.87;;
5539;SDS011;2792;52.452;9.752;2023-08-20T01:24:17;11.57;;;8.23;;
5539;SDS011;2792;52.452;9.752;2023-08-20T01:26:57;10.77;;;8.57;;
5539;SDS011;2792;52.452;9.752;2023-08-20T01:29:31;9.60;;;8.03;;
5539;SDS011;2792;52.452;9.752;2023-08-20T01:31:58;11.43;;;8.30;;
5539;SDS011;2792;52.452;9.752;2023-08-20T01:34:25;10.80;;;7.73;;
5539;SDS011;2792;52.452;9.752;2023-08-20T01:36:52;10.87;;;8.00;;
5539;SDS011;2792;52.452;9.752;2023-08-20T01:39:18;11.87;;;7.70;;
5539;SDS011;2792;52.452;9.752;2023-08-20T01:41:45;11.23;;;7.40;;
5539;SDS011;2792;52.452;9.752;2023-08-20T01:44:12;7.47;;;6.67;;
5539;SDS011;2792;52.452;9.752;2023-08-20T01:46:40;7.97;;;6.33;;
5539;SDS011;2792;52.452;9.752;2023-08-20T01:49:06;10.30;;;6.60;;
5539;SDS011;2792;52.452;9.752;2023-08-20T01:51:33;8.23;;;6.93;;
5539;SDS011;2792;52.452;9.752;2023-08-20T01:54:01;8.67;;;7.07;;
5539;SDS011;2792;52.452;9.752;2023-08-20T01:56:28;12.33;;;6.90;;
5539;SDS011;2792;52.452;9.752;2023-08-20T01:58:54;10.50;;;7.43;;
5539;SDS011;2792;52.452;9.752;2023-08-20T02:01:21;7.23;;;6.27;;
5539;SDS011;2792;52.452;9.752;2023-08-20T02:03:49;6.30;;;5.70;;
5539;SDS011;2792;52.452;9.752;2023-08-20T02:06:15;7.20;;;5.97;;
5539;SDS011;2792;52.452;9.752;2023-08-20T02:08:42;7.43;;;6.30;;
5539;SDS011;2792;52.452;9.752;2023-08-20T02:11:08;8.80;;;7.00;;
5539;SDS011;2792;52.452;9.752;2023-08-20T02:13:35;10.53;;;7.00;;
5539;SDS011;2792;52.452;9.752;2023-08-20T02:16:02;11.90;;;7.60;;
5539;SDS011;2792;52.452;9.752;2023-08-20T02:18:30;7.07;;;6.17;;
5539;SDS011;2792;52.452;9.752;2023-08-20T02:20:58;10.93;;;6.80;;
5539;SDS011;2792;52.452;9.752;2023-08-20T02:23:25;10.70;;;6.50;;
5539;SDS011;2792;52.452;9.752;2023-08-20T02:25:51;9.10;;;6.70;;
5539;SDS011;2792;52.452;9.752;2023-08-20T02:28:18;9.90;;;7.10;;
5539;SDS011;2792;52.452;9.752;2023-08-20T02:30:45;10.20;;;7.40;;
5539;SDS011;2792;52.452;9.752;2023-08-20T02:33:12;10.07;;;8.10;;
5539;SDS011;2792;52.452;9.752;2023-08-20T02:35:39;13.90;;;8.10;;
5539;SDS011;2792;52.452;9.752;2023-08-20T02:38:07;11.37;;;7.90;;
5539;SDS011;2792;52.452;9.752;2023-08-20T02:40:39;11.20;;;7.63;;
5539;SDS011;2792;52.452;9.752;2023-08-20T02:43:06;15.93;;;9.40;;
5539;SDS011;2792;52.452;9.752;2023-08-20T02:45:32;10.43;;;8.10;;
5539;SDS011;2792;52.452;9.752;2023-08-20T02:47:59;11.10;;;7.50;;
5539;SDS011;2792;52.452;9.752;2023-08-20T02:50:26;12.43;;;9.13;;
5539;SDS011;2792;52.452;9.752;2023-08-20T02:52:52;12.93;;;8.17;;
5539;SDS011;2792;52.452;9.752;2023-08-20T02:55:20;8.90;;;7.60;;
5539;SDS011;2792;52.452;9.752;2023-08-20T02:57:47;9.30;;;7.53;;
5539;SDS011;2792;52.452;9.752;2023-08-20T03:00:13;8.50;;;7.20;;
5539;SDS011;2792;52.452;9.752;2023-08-20T03:02:40;8.97;;;7.10;;
5539;SDS011;2792;52.452;9.752;2023-08-20T03:05:07;11.47;;;8.13;;
5539;SDS011;2792;52.452;9.752;2023-08-20T03:07:34;10.93;;;7.90;;
5539;SDS011;2792;52.452;9.752;2023-08-20T03:10:01;10.70;;;7.77;;
5539;SDS011;2792;52.452;9.752;2023-08-20T03:12:30;10.00;;;7.93;;
5539;SDS011;2792;52.452;9.752;2023-08-20T03:14:56;14.97;;;8.23;;
5539;SDS011;2792;52.452;9.752;2023-08-20T03:17:23;7.80;;;6.70;;
5539;SDS011;2792;52.452;9.752;2023-08-20T03:19:53;8.67;;;7.33;;
5539;SDS011;2792;52.452;9.752;2023-08-20T03:22:21;10.90;;;8.93;;
5539;SDS011;2792;52.452;9.752;2023-08-20T03:24:48;13.00;;;9.13;;
5539;SDS011;2792;52.452;9.752;2023-08-20T03:27:15;15.17;;;9.27;;
5539;SDS011;2792;52.452;9.752;2023-08-20T03:29:43;11.80;;;8.97;;
5539;SDS011;2792;52.452;9.752;2023-08-20T03:32:09;12.00;;;8.63;;
5539;SDS011;2792;52.452;9.752;2023-08-20T03:34:36;11.60;;;8.60;;
5539;SDS011;2792;52.452;9.752;2023-08-20T03:37:02;12.80;;;9.03;;
5539;SDS011;2792;52.452;9.752;2023-08-20T03:39:29;11.00;;;8.23;;
5539;SDS011;2792;52.452;9.752;2023-08-20T03:41:57;10.43;;;8.23;;
5539;SDS011;2792;52.452;9.752;2023-08-20T03:44:23;11.33;;;8.40;;
5539;SDS011;2792;52.452;9.752;2023-08-20T03:46:51;13.37;;;8.63;;
5539;SDS011;2792;52.452;9.752;2023-08-20T03:49:18;12.63;;;8.67;;
5539;SDS011;2792;52.452;9.752;2023-08-20T03:51:44;13.80;;;8.20;;
5539;SDS011;2792;52.452;9.752;2023-08-20T03:54:11;9.43;;;7.97;;
5539;SDS011;2792;52.452;9.752;2023-08-20T03:56:37;14.90;;;9.40;;
5539;SDS011;2792;52.452;9.752;2023-08-20T03:59:04;11.17;;;8.63;;
5539;SDS011;2792;52.452;9.752;2023-08-20T04:01:30;11.47;;;8.60;;
5539;SDS011;2792;52.452;9.752;2023-08-20T04:03:58;8.73;;;7.87;;
5539;SDS011;2792;52.452;9.752;2023-08-20T04:06:26;14.10;;;8.63;;
5539;SDS011;2792;52.452;9.752;2023-08-20T04:08:52;13.20;;;8.33;;
5539;SDS011;2792;52.452;9.752;2023-08-20T04:11:19;7.50;;;6.43;;
5539;SDS011;2792;52.452;9.752;2023-08-20T04:13:45;14.83;;;8.57;;
5539;SDS011;2792;52.452;9.752;2023-08-20T04:16:12;12.40;;;8.60;;
5539;SDS011;2792;52.452;9.752;2023-08-20T04:18:39;10.97;;;8.10;;
5539;SDS011;2792;52.452;9.752;2023-08-20T04:21:07;9.47;;;7.50;;
5539;SDS011;2792;52.452;9.752;2023-08-20T04:23:33;7.67;;;6.53;;
5539;SDS011;2792;52.452;9.752;2023-08-20T04:26:00;9.67;;;7.83;;
5539;SDS011;2792;52.452;9.752;2023-08-20T04:28:27;10.87;;;8.10;;
5539;SDS011;2792;52.452;9.752;2023-08-20T04:30:53;10.97;;;7.57;;
5539;SDS011;2792;52.452;9.752;2023-08-20T04:33:21;11.00;;;7.63;;
5539;SDS011;2792;52.452;9.752;2023-08-20T04:35:48;10.17;;;7.10;;
5539;SDS011;2792;52.452;9.752;2023-08-20T04:38:17;8.83;;;6.87;;
5539;SDS011;2792;52.452;9.752;2023-08-20T04:40:45;8.80;;;6.57;;
5539;SDS011;2792;52.452;9.752;2023-08-20T04:43:12;9.90;;;6.90;;
5539;SDS011;2792;52.452;9.752;2023-08-20T04:45:38;9.47;;;8.30;;
5539;SDS011;2792;52.452;9.752;2023-08-20T04:48:05;8.40;;;7.50;;
5539;SDS011;2792;52.452;9.752;2023-08-20T04:50:32;9.37;;;7.30;;
5539;SDS011;2792;52.452;9.752;2023-08-20T04:52:58;8.07;;;6.60;;
5539;SDS011;2792;52.452;9.752;2023-08-20T04:55:27;9.47;;;7.93;;
5539;SDS011;2792;52.452;9.752;2023-08-20T04:57:54;14.40;;;7.17;;
5539;SDS011;2792;52.452;9.752;2023-08-20T05:00:21;7.40;;;6.57;;
5539;SDS011;2792;52.452;9.752;2023-08-20T05:02:48;9.47;;;7.37;;
5539;SDS011;2792;52.452;9.752;2023-08-20T05:05:15;11.83;;;7.37;;
5539;SDS011;2792;52.452;9.752;2023-08-20T05:07:41;10.33;;;6.50;;
5539;SDS011;2792;52.452;9.752;2023-08-20T05:10:08;7.30;;;6.17;;
5539;SDS011;2792;52.452;9.752;2023-08-20T05:12:36;6.90;;;6.20;;
5539;SDS011;2792;52.452;9.752;2023-08-20T05:15:03;8.90;;;6.10;;
5539;SDS011;2792;52.452;9.752;2023-08-20T05:17:30;7.47;;;6.30;;
5539;SDS011;2792;52.452;9.752;2023-08-20T05:19:57;7.10;;;5.90;;
5539;SDS011;2792;52.452;9.752;2023-08-20T05:22:23;7.03;;;6.17;;
5539;SDS011;2792;52.452;9.752;2023-08-20T05:24:50;10.53;;;5.70;;
5539;SDS011;2792;52.452;9.752;2023-08-20T05:27:16;7.83;;;5.07;;
5539;SDS011;2792;52.452;9.752;2023-08-20T05:29:45;6.30;;;4.33;;
5539;SDS011;2792;52.452;9.752;2023-08-20T05:32:12;5.30;;;4.20;;
5539;SDS011;2792;52.452;9.752;2023-08-20T05:34:39;5.40;;;3.90;;
5539;SDS011;2792;52.452;9.752;2023-08-20T05:37:06;6.60;;;4.70;;
5539;SDS011;2792;52.452;9.752;2023-08-20T05:39:36;6.10;;;4.23;;
5539;SDS011;2792;52.452;9.752;2023-08-20T05:42:03;5.50;;;4.37;;
5539;SDS011;2792;52.452;9.752;2023-08-20T05:44:30;6.90;;;4.40;;
5539;SDS011;2792;52.452;9.752;2023-08-20T05:46:58;6.47;;;3.80;;
5539;SDS011;2792;52.452;9.752;2023-08-20T05:49:26;7.97;;;4.60;;
5539;SDS011;2792;52.452;9.752;2023-08-20T05:51:53;6.10;;;3.73;;
5539;SDS011;2792;52.452;9.752;2023-08-20T05:54:19;5.73;;;3.30;;
5539;SDS011;2792;52.452;9.752;2023-08-20T05:56:46;4.97;;;3.77;;
5539;SDS011;2792;52.452;9.752;2023-08-20T05:59:12;4.10;;;3.20;;
5539;SDS011;2792;52.452;9.752;2023-08-20T06:01:39;3.80;;;3.30;;
5539;SDS011;2792;52.452;9.752;2023-08-20T06:04:07;6.10;;;3.70;;
5539;SDS011;2792;52.452;9.752;2023-08-20T06:06:34;5.37;;;3.17;;
5539;SDS011;2792;52.452;9.752;2023-08-20T06:09:01;5.10;;;3.57;;
5539;SDS011;2792;52.452;9.752;2023-08-20T06:11:27;6.17;;;3.80;;
5539;SDS011;2792;52.452;9.752;2023-08-20T06:13:54;5.33;;;3.80;;
5539;SDS011;2792;52.452;9.752;2023-08-20T06:16:20;3.93;;;3.53;;
5539;SDS011;2792;52.452;9.752;2023-08-20T06:18:47;5.27;;;3.53;;
5539;SDS011;2792;52.452;9.752;2023-08-20T06:21:15;5.50;;;3.10;;
5539;SDS011;2792;52.452;9.752;2023-08-20T06:23:41;5.10;;;3.57;;
5539;SDS011;2792;52.452;9.752;2023-08-20T06:26:08;5.30;;;3.50;;
5539;SDS011;2792;52.452;9.752;2023-08-20T06:28:34;3.90;;;3.07;;
5539;SDS011;2792;52.452;9.752;2023-08-20T06:31:01;3.33;;;3.00;;
5539;SDS011;2792;52.452;9.752;2023-08-20T06:33:28;5.47;;;2.93;;
5539;SDS011;2792;52.452;9.752;2023-08-20T06:35:54;6.50;;;3.27;;
5539;SDS011;2792;52.452;9.752;2023-08-20T06:38:22;5.13;;;3.50;;
5539;SDS011;2792;52.452;9.752;2023-08-20T06:40:49;3.60;;;3.10;;
5539;SDS011;2792;52.452;9.752;2023-08-20T06:43:16;5.07;;;2.90;;
5539;SDS011;2792;52.452;9.752;2023-08-20T06:45:42;4.07;;;2.57;;
5539;SDS011;2792;52.452;9.752;2023-08-20T06:48:09;2.90;;;2.50;;
5539;SDS011;2792;52.452;9.752;2023-08-20T06:50:36;4.00;;;3.00;;
5539;SDS011;2792;52.452;9.752;2023-08-20T06:53:02;6.83;;;2.60;;
5539;SDS011;2792;52.452;9.752;2023-08-20T06:55:31;4.13;;;2.40;;
5539;SDS011;2792;52.452;9.752;2023-08-20T06:57:58;3.93;;;2.57;;
5539;SDS011;2792;52.452;9.752;2023-08-20T07:00:25;4.70;;;2.53;;
5539;SDS011;2792;52.452;9.752;2023-08-20T07:02:51;4.60;;;1.83;;
5539;SDS011;2792;52.452;9.752;2023-08-20T07:05:18;4.13;;;3.03;;
5539;SDS011;2792;52.452;9.752;2023-08-20T07:07:45;2.83;;;2.40;;
5539;SDS011;2792;52.452;9.752;2023-08-20T07:10:12;4.80;;;2.13;;
5539;SDS011;2792;52.452;9.752;2023-08-20T07:12:40;2.50;;;2.30;;
5539;SDS011;2792;52.452;9.752;2023-08-20T07:15:07;5.77;;;2.47;;
5539;SDS011;2792;52.452;9.752;2023-08-20T07:17:34;4.80;;;2.47;;
5539;SDS011;2792;52.452;9.752;2023-08-20T07:20:00;4.67;;;2.20;;
5539;SDS011;2792;52.452;9.752;2023-08-20T07:22:27;3.80;;;2.10;;
5539;SDS011;2792;52.452;9.752;2023-08-20T07:24:54;6.50;;;2.63;;
5539;SDS011;2792;52.452;9.752;2023-08-20T07:27:20;2.93;;;2.10;;
5539;SDS011;2792;52.452;9.752;2023-08-20T07:29:48;4.37;;;2.40;;
5539;SDS011;2792;52.452;9.752;2023-08-20T07:32:15;4.93;;;2.90;;
5539;SDS011;2792;52.452;9.752;2023-08-20T07:34:41;5.03;;;2.53;;
5539;SDS011;2792;52.452;9.752;2023-08-20T07:37:08;3.43;;;2.37;;
5539;SDS011;2792;52.452;9.752;2023-08-20T07:39:34;4.47;;;2.23;;
5539;SDS011;2792;52.452;9.752;2023-08-20T07:42:01;4.70;;;2.90;;
5539;SDS011;2792;52.452;9.752;2023-08-20T07:44:28;4.73;;;2.53;;
5539;SDS011;2792;52.452;9.752;2023-08-20T07:46:56;4.70;;;2.80;;
5539;SDS011;2792;52.452;9.752;2023-08-20T07:49:23;4.63;;;2.60;;
5539;SDS011;2792;52.452;9.752;2023-08-20T07:51:49;6.40;;;2.80;;
5539;SDS011;2792;52.452;9.752;2023-08-20T07:54:17;2.53;;;2.33;;
5539;SDS011;2792;52.452;9.752;2023-08-20T07:56:44;9.60;;;3.20;;
5539;SDS011;2792;52.452;9.752;2023-08-20T07:59:10;4.10;;;2.90;;
5539;SDS011;2792;52.452;9.752;2023-08-20T08:01:37;5.93;;;2.97;;
5539;SDS011;2792;52.452;9.752;2023-08-20T08:04:05;4.97;;;2.50;;
5539;SDS011;2792;52.452;9.752;2023-08-20T08:06:31;5.57;;;3.23;;
5539;SDS011;2792;52.452;9.752;2023-08-20T08:11:46;3.90;;;2.63;;
5539;SDS011;2792;52.452;9.752;2023-08-20T08:14:13;8.53;;;2.80;;
5539;SDS011;2792;52.452;9.752;2023-08-20T08:16:40;6.40;;;3.10;;
5539;SDS011;2792;52.452;9.752;2023-08-20T08:19:08;5.77;;;3.10;;
5539;SDS011;2792;52.452;9.752;2023-08-20T08:21:34;6.50;;;3.40;;
5539;SDS011;2792;52.452;9.752;2023-08-20T08:24:01;4.97;;;2.87;;
5539;SDS011;2792;52.452;9.752;2023-08-20T08:26:28;3.50;;;3.10;;
5539;SDS011;2792;52.452;9.752;2023-08-20T08:28:55;6.07;;;3.33;;
5539;SDS011;2792;52.452;9.752;2023-08-20T08:31:21;4.30;;;3.30;;
5539;SDS011;2792;52.452;9.752;2023-08-20T08:33:49;7.13;;;2.70;;
5539;SDS011;2792;52.452;9.752;2023-08-20T08:36:16;4.43;;;3.30;;
5539;SDS011;2792;52.452;9.752;2023-08-20T08:38:43;4.90;;;3.40;;
5539;SDS011;2792;52.452;9.752;2023-08-20T08:41:10;3.07;;;2.73;;
5539;SDS011;2792;52.452;9.752;2023-08-20T08:43:38;4.57;;;2.90;;
5539;SDS011;2792;52.452;9.752;2023-08-20T08:46:04;5.00;;;3.37;;
5539;SDS011;2792;52.452;9.752;2023-08-20T08:48:33;3.33;;;3.00;;
5539;SDS011;2792;52.452;9.752;2023-08-20T08:51:00;5.47;;;2.93;;
5539;SDS011;2792;52.452;9.752;2023-08-20T08:53:29;5.40;;;3.10;;
5539;SDS011;2792;52.452;9.752;2023-08-20T08:55:56;5.50;;;3.17;;
5539;SDS011;2792;52.452;9.752;2023-08-20T08:58:23;5.63;;;3.70;;
5539;SDS011;2792;52.452;9.752;2023-08-20T09:00:49;4.10;;;2.77;;
5539;SDS011;2792;52.452;9.752;2023-08-20T09:03:16;4.50;;;3.20;;
5539;SDS011;2792;52.452;9.752;2023-08-20T09:05:46;7.60;;;3.53;;
5539;SDS011;2792;52.452;9.752;2023-08-20T09:08:18;5.87;;;3.90;;
5539;SDS011;2792;52.452;9.752;2023-08-20T09:10:47;7.10;;;3.30;;
5539;SDS011;2792;52.452;9.752;2023-08-20T09:13:16;5.70;;;2.70;;
5539;SDS011;2792;52.452;9.752;2023-08-20T09:15:42;4.20;;;3.17;;
5539;SDS011;2792;52.452;9.752;2023-08-20T09:18:09;4.80;;;3.63;;
5539;SDS011;2792;52.452;9.752;2023-08-20T09:20:36;6.07;;;3.50;;
5539;SDS011;2792;52.452;9.752;2023-08-20T09:23:03;6.20;;;3.50;;
5539;SDS011;2792;52.452;9.752;2023-08-20T09:25:29;5.33;;;3.20;;
5539;SDS011;2792;52.452;9.752;2023-08-20T09:27:57;3.40;;;3.10;;
5539;SDS011;2792;52.452;9.752;2023-08-20T09:30:28;7.97;;;3.63;;
5539;SDS011;2792;52.452;9.752;2023-08-20T09:33:04;5.33;;;3.00;;
5539;SDS011;2792;52.452;9.752;2023-08-20T09:35:35;4.83;;;2.80;;
5539;SDS011;2792;52.452;9.752;2023-08-20T09:38:02;4.10;;;2.90;;
5539;SDS011;2792;52.452;9.752;2023-08-20T09:40:29;7.83;;;3.47;;
5539;SDS011;2792;52.452;9.752;2023-08-20T09:42:58;4.50;;;2.70;;
5539;SDS011;2792;52.452;9.752;2023-08-20T09:45:24;3.63;;;2.67;;
5539;SDS011;2792;52.452;9.752;2023-08-20T09:47:54;4.43;;;2.80;;
5539;SDS011;2792;52.452;9.752;2023-08-20T09:50:21;4.63;;;3.07;;
5539;SDS011;2792;52.452;9.752;2023-08-20T09:52:53;7.03;;;3.23;;
5539;SDS011;2792;52.452;9.752;2023-08-20T09:55:23;4.87;;;2.87;;
5539;SDS011;2792;52.452;9.752;2023-08-20T09:57:55;4.20;;;3.13;;
5539;SDS011;2792;52.452;9.752;2023-08-20T10:00:23;5.50;;;3.07;;
5539;SDS011;2792;52.452;9.752;2023-08-20T10:02:50;3.20;;;2.50;;
5539;SDS011;2792;52.452;9.752;2023-08-20T10:05:17;6.30;;;2.80;;
5539;SDS011;2792;52.452;9.752;2023-08-20T10:07:46;6.33;;;3.03;;
5539;SDS011;2792;52.452;9.752;2023-08-20T10:10:13;5.73;;;2.57;;
5539;SDS011;2792;52.452;9.752;2023-08-20T10:12:41;4.43;;;2.57;;
5539;SDS011;2792;52.452;9.752;2023-08-20T10:15:09;3.37;;;2.60;;
5539;SDS011;2792;52.452;9.752;2023-08-20T10:17:38;5.30;;;2.40;;
5539;SDS011;2792;52.452;9.752;2023-08-20T10:20:06;3.50;;;2.50;;
5539;SDS011;2792;52.452;9.752;2023-08-20T10:22:35;5.50;;;2.63;;
5539;SDS011;2792;52.452;9.752;2023-08-20T10:25:03;3.63;;;2.47;;
5539;SDS011;2792;52.452;9.752;2023-08-20T10:27:33;2.27;;;2.10;;
5539;SDS011;2792;52.452;9.752;2023-08-20T10:30:01;4.57;;;2.53;;
5539;SDS011;2792;52.452;9.752;2023-08-20T10:32:45;3.47;;;2.27;;
5539;SDS011;2792;52.452;9.752;2023-08-20T10:35:13;3.60;;;2.13;;
5539;SDS011;2792;52.452;9.752;2023-08-20T10:40:48;3.13;;;2.47;;
5539;SDS011;2792;52.452;9.752;2023-08-20T10:43:28;2.90;;;2.30;;
5539;SDS011;2792;52.452;9.752;2023-08-20T10:46:02;2.93;;;2.23;;
5539;SDS011;2792;52.452;9.752;2023-08-20T10:48:31;4.37;;;2.50;;
5539;SDS011;2792;52.452;9.752;2023-08-20T10:50:59;3.10;;;2.50;;
5539;SDS011;2792;52.452;9.752;2023-08-20T10:53:33;3.97;;;2.50;;
5539;SDS011;2792;52.452;9.752;2023-08-20T10:56:06;4.93;;;2.60;;
5539;SDS011;2792;52.452;9.752;2023-08-20T10:58:34;3.03;;;2.67;;
5539;SDS011;2792;52.452;9.752;2023-08-20T11:01:13;2.70;;;2.50;;
5539;SDS011;2792;52.452;9.752;2023-08-20T11:03:42;4.63;;;2.47;;
5539;SDS011;2792;52.452;9.752;2023-08-20T11:06:09;5.23;;;2.47;;
5539;SDS011;2792;52.452;9.752;2023-08-20T11:08:36;3.30;;;2.30;;
5539;SDS011;2792;52.452;9.752;2023-08-20T11:11:03;6.60;;;3.50;;
5539;SDS011;2792;52.452;9.752;2023-08-20T11:13:29;5.77;;;2.30;;
5539;SDS011;2792;52.452;9.752;2023-08-20T11:15:58;5.50;;;2.40;;
5539;SDS011;2792;52.452;9.752;2023-08-20T11:18:25;3.73;;;2.20;;
5539;SDS011;2792;52.452;9.752;2023-08-20T11:20:53;4.67;;;2.17;;
5539;SDS011;2792;52.452;9.752;2023-08-20T11:23:20;2.93;;;2.13;;
5539;SDS011;2792;52.452;9.752;2023-08-20T11:25:46;2.27;;;2.07;;
5539;SDS011;2792;52.452;9.752;2023-08-20T11:28:13;4.17;;;2.50;;
5539;SDS011;2792;52.452;9.752;2023-08-20T11:30:40;2.97;;;2.67;;
5539;SDS011;2792;52.452;9.752;2023-08-20T11:33:06;2.40;;;2.20;;
5539;SDS011;2792;52.452;9.752;2023-08-20T11:35:33;2.67;;;2.47;;
5539;SDS011;2792;52.452;9.752;2023-08-20T11:38:02;4.90;;;2.57;;
5539;SDS011;2792;52.452;9.752;2023-08-20T11:40:29;4.37;;;2.43;;
5539;SDS011;2792;52.452;9.752;2023-08-20T11:42:55;13.00;;;2.40;;
5539;SDS011;2792;52.452;9.752;2023-08-20T11:45:22;3.07;;;2.13;;
5539;SDS011;2792;52.452;9.752;2023-08-20T11:47:55;6.50;;;2.50;;
5539;SDS011;2792;52.452;9.752;2023-08-20T11:50:22;2.73;;;2.37;;
5539;SDS011;2792;52.452;9.752;2023-08-20T11:52:48;3.23;;;2.13;;
5539;SDS011;2792;52.452;9.752;2023-08-20T11:55:21;4.10;;;2.00;;
5539;SDS011;2792;52.452;9.752;2023-08-20T11:57:49;2.67;;;2.47;;
5539;SDS011;2792;52.452;9.752;2023-08-20T12:00:23;3.13;;;2.40;;
5539;SDS011;2792;52.452;9.752;2023-08-20T12:02:52;2.70;;;2.33;;
5539;SDS011;2792;52.452;9.752;2023-08-20T12:05:19;3.33;;;2.50;;
5539;SDS011;2792;52.452;9.752;2023-08-20T12:07:54;2.97;;;2.60;;
5539;SDS011;2792;52.452;9.752;2023-08-20T12:10:23;4.10;;;2.60;;
5539;SDS011;2792;52.452;9.752;2023-08-20T12:12:50;3.97;;;2.47;;
5539;SDS011;2792;52.452;9.752;2023-08-20T12:15:17;2.73;;;2.50;;
5539;SDS011;2792;52.452;9.752;2023-08-20T12:17:44;3.63;;;2.27;;
5539;SDS011;2792;52.452;9.752;2023-08-20T12:20:21;2.63;;;2.43;;
5539;SDS011;2792;52.452;9.752;2023-08-20T12:22:48;3.77;;;2.50;;
5539;SDS011;2792;52.452;9.752;2023-08-20T12:25:15;2.70;;;2.00;;
5539;SDS011;2792;52.452;9.752;2023-08-20T12:27:43;2.67;;;2.43;;
5539;SDS011;2792;52.452;9.752;2023-08-20T12:30:10;2.80;;;2.50;;
5539;SDS011;2792;52.452;9.752;2023-08-20T12:32:37;5.13;;;2.70;;
5539;SDS011;2792;52.452;9.752;2023-08-20T12:35:05;4.53;;;2.40;;
5539;SDS011;2792;52.452;9.752;2023-08-20T12:37:32;3.03;;;2.70;;
5539;SDS011;2792;52.452;9.752;2023-08-20T12:39:59;3.30;;;2.67;;
5539;SDS011;2792;52.452;9.752;2023-08-20T12:42:25;2.63;;;2.43;;
5539;SDS011;2792;52.452;9.752;2023-08-20T12:44:54;5.63;;;2.33;;
5539;SDS011;2792;52.452;9.752;2023-08-20T12:47:20;3.30;;;2.90;;
5539;SDS011;2792;52.452;9.752;2023-08-20T12:49:47;4.90;;;2.70;;
5539;SDS011;2792;52.452;9.752;2023-08-20T12:52:13;2.67;;;2.47;;
5539;SDS011;2792;52.452;9.752;2023-08-20T12:54:40;5.60;;;2.70;;
5539;SDS011;2792;52.452;9.752;2023-08-20T12:57:07;2.67;;;2.37;;
5539;SDS011;2792;52.452;9.752;2023-08-20T12:59:33;4.33;;;3.07;;
5539;SDS011;2792;52.452;9.752;2023-08-20T13:02:01;4.20;;;2.70;;
5539;SDS011;2792;52.452;9.752;2023-08-20T13:04:28;2.73;;;2.53;;
5539;SDS011;2792;52.452;9.752;2023-08-20T13:06:55;3.20;;;2.63;;
5539;SDS011;2792;52.452;9.752;2023-08-20T13:09:22;3.40;;;2.83;;
5539;SDS011;2792;52.452;9.752;2023-08-20T13:11:49;3.17;;;2.87;;
5539;SDS011;2792;52.452;9.752;2023-08-20T13:14:16;3.20;;;2.70;;
5539;SDS011;2792;52.452;9.752;2023-08-20T13:16:43;3.73;;;2.63;;
5539;SDS011;2792;52.452;9.752;2023-08-20T13:19:12;3.77;;;3.00;;
5539;SDS011;2792;52.452;9.752;2023-08-20T13:21:39;3.13;;;2.77;;
5539;SDS011;2792;52.452;9.752;2023-08-20T13:24:06;3.53;;;3.00;;
5539;SDS011;2792;52.452;9.752;2023-08-20T13:26:33;4.37;;;2.70;;
5539;SDS011;2792;52.452;9.752;2023-08-20T13:29:00;3.70;;;3.40;;
5539;SDS011;2792;52.452;9.752;2023-08-20T13:31:26;2.97;;;2.37;;
5539;SDS011;2792;52.452;9.752;2023-08-20T13:33:53;3.00;;;2.27;;
5539;SDS011;2792;52.452;9.752;2023-08-20T13:36:21;3.87;;;2.70;;
5539;SDS011;2792;52.452;9.752;2023-08-20T13:38:47;3.60;;;2.97;;
5539;SDS011;2792;52.452;9.752;2023-08-20T13:41:14;2.80;;;2.57;;
5539;SDS011;2792;52.452;9.752;2023-08-20T13:43:40;3.40;;;2.40;;
5539;SDS011;2792;52.452;9.752;2023-08-20T13:46:07;3.00;;;2.70;;
5539;SDS011;2792;52.452;9.752;2023-08-20T13:48:33;3.57;;;2.30;;
5539;SDS011;2792;52.452;9.752;2023-08-20T13:51:00;3.87;;;3.03;;
5539;SDS011;2792;52.452;9.752;2023-08-20T13:53:28;2.97;;;2.40;;
5539;SDS011;2792;52.452;9.752;2023-08-20T13:55:55;3.40;;;2.33;;
5539;SDS011;2792;52.452;9.752;2023-08-20T13:58:21;3.93;;;3.33;;
5539;SDS011;2792;52.452;9.752;2023-08-20T14:00:48;2.60;;;2.40;;
5539;SDS011;2792;52.452;9.752;2023-08-20T14:03:15;4.60;;;2.93;;
5539;SDS011;2792;52.452;9.752;2023-08-20T14:05:41;2.97;;;2.60;;
5539;SDS011;2792;52.452;9.752;2023-08-20T14:08:10;2.90;;;2.40;;
5539;SDS011;2792;52.452;9.752;2023-08-20T14:10:38;3.60;;;3.13;;
5539;SDS011;2792;52.452;9.752;2023-08-20T14:13:04;2.90;;;2.60;;
5539;SDS011;2792;52.452;9.752;2023-08-20T14:15:31;4.10;;;2.70;;
5539;SDS011;2792;52.452;9.752;2023-08-20T14:17:57;9.17;;;3.17;;
5539;SDS011;2792;52.452;9.752;2023-08-20T14:20:24;3.07;;;2.60;;
5539;SDS011;2792;52.452;9.752;2023-08-20T14:22:50;2.80;;;2.53;;
5539;SDS011;2792;52.452;9.752;2023-08-20T14:25:17;4.23;;;2.70;;
5539;SDS011;2792;52.452;9.752;2023-08-20T14:27:45;3.20;;;2.73;;
5539;SDS011;2792;52.452;9.752;2023-08-20T14:30:11;3.10;;;2.67;;
5539;SDS011;2792;52.452;9.752;2023-08-20T14:32:38;4.10;;;3.53;;
5539;SDS011;2792;52.452;9.752;2023-08-20T14:35:05;2.93;;;2.70;;
5539;SDS011;2792;52.452;9.752;2023-08-20T14:37:31;4.57;;;2.50;;
5539;SDS011;2792;52.452;9.752;2023-08-20T14:39:58;4.13;;;3.30;;
5539;SDS011;2792;52.452;9.752;2023-08-20T14:42:24;3.17;;;2.87;;
5539;SDS011;2792;52.452;9.752;2023-08-20T14:44:52;3.10;;;2.40;;
5539;SDS011;2792;52.452;9.752;2023-08-20T14:47:20;2.57;;;2.37;;
5539;SDS011;2792;52.452;9.752;2023-08-20T14:49:47;4.40;;;2.50;;
5539;SDS011;2792;52.452;9.752;2023-08-20T14:52:13;4.13;;;2.70;;
5539;SDS011;2792;52.452;9.752;2023-08-20T14:54:40;6.47;;;3.30;;
5539;SDS011;2792;52.452;9.752;2023-08-20T14:57:07;3.33;;;2.83;;
5539;SDS011;2792;52.452;9.752;2023-08-20T14:59:34;3.97;;;3.30;;
5539;SDS011;2792;52.452;9.752;2023-08-20T15:02:02;3.90;;;2.70;;
5539;SDS011;2792;52.452;9.752;2023-08-20T15:04:28;5.20;;;4.27;;
5539;SDS011;2792;52.452;9.752;2023-08-20T15:06:55;5.27;;;3.47;;
5539;SDS011;2792;52.452;9.752;2023-08-20T15:09:21;4.10;;;2.93;;
5539;SDS011;2792;52.452;9.752;2023-08-20T15:11:48;3.43;;;3.00;;
5539;SDS011;2792;52.452;9.752;2023-08-20T15:14:15;3.47;;;2.53;;
5539;SDS011;2792;52.452;9.752;2023-08-20T15:16:41;3.17;;;2.50;;
5539;SDS011;2792;52.452;9.752;2023-08-20T15:19:09;3.00;;;2.70;;